Time;durP1;ratioP1;P1;durP2;ratioP2;P2;SDS_P1;SDS_P2;PMS_P1;PMS_P2;Temp;Humidity;BMP_temperature;BMP_pressure;BME280_temperature;BME280_humidity;BME280_pressure;Samples;Min_cycle;Max_cycle;Signal;HPM_P1;HPM_P2
2022/11/21 00:01:02;;;;;;;42.97;40.30;;;;;;;-1.32;100.00;100537.25;5032615;28;20987;-46
2022/11/21 00:03:29;;;;;;;42.47;39.97;;;;;;;-1.32;100.00;100535.47;5032409;28;20806;-49
2022/11/21 00:05:58;;;;;;;44.33;41.07;;;;;;;-1.32;100.00;100526.78;5032799;28;20463;-44
2022/11/21 00:08:26;;;;;;;42.83;40.17;;;;;;;-1.35;100.00;100527.88;5032788;28;20443;-45
2022/11/21 00:10:54;;;;;;;42.73;40.03;;;;;;;-1.33;100.00;100530.34;5032353;28;20432;-46
2022/11/21 00:13:21;;;;;;;42.27;39.63;;;;;;;-1.35;100.00;100520.03;5032148;28;20468;-45
2022/11/21 00:15:49;;;;;;;41.63;39.00;;;;;;;-1.34;100.00;100526.06;5032843;28;20436;-45
2022/11/21 00:18:16;;;;;;;41.53;38.87;;;;;;;-1.36;100.00;100522.75;5032250;28;20482;-46
2022/11/21 00:20:44;;;;;;;41.63;39.07;;;;;;;-1.36;100.00;100509.66;5032348;28;21115;-44
2022/11/21 00:23:13;;;;;;;40.70;38.13;;;;;;;-1.35;100.00;100516.56;5031862;28;20464;-46
2022/11/21 00:25:41;;;;;;;40.97;38.23;;;;;;;-1.35;100.00;100512.19;5032381;28;20497;-45
2022/11/21 00:28:08;;;;;;;40.90;38.17;;;;;;;-1.36;100.00;100513.13;5032239;28;20464;-45
2022/11/21 00:30:36;;;;;;;40.23;37.63;;;;;;;-1.34;100.00;100515.59;5032422;28;20435;-49
2022/11/21 00:33:04;;;;;;;40.50;37.93;;;;;;;-1.33;100.00;100514.66;5031669;28;20857;-45
2022/11/21 00:35:31;;;;;;;40.57;38.00;;;;;;;-1.32;100.00;100511.09;5032246;28;20436;-46
2022/11/21 00:37:59;;;;;;;40.63;38.03;;;;;;;-1.30;100.00;100506.56;5031536;28;20967;-48
2022/11/21 00:40:28;;;;;;;41.27;38.60;;;;;;;-1.31;100.00;100497.03;5032168;28;20432;-47
2022/11/21 00:42:55;;;;;;;40.67;38.07;;;;;;;-1.26;100.00;100500.13;5031529;28;20468;-48
2022/11/21 00:45:23;;;;;;;40.00;37.53;;;;;;;-1.24;100.00;100500.81;5032164;28;20439;-47
2022/11/21 00:47:51;;;;;;;41.47;38.70;;;;;;;-1.22;100.00;100496.28;5032158;28;20484;-45
2022/11/21 00:50:18;;;;;;;38.20;35.90;;;;;;;-1.22;100.00;100493.66;5031887;28;20439;-49
2022/11/21 00:52:46;;;;;;;40.73;38.23;;;;;;;-1.21;100.00;100495.31;5023139;28;20472;-46
2022/11/21 00:55:14;;;;;;;40.40;38.07;;;;;;;-1.20;100.00;100492.59;5032096;28;20432;-47
2022/11/21 00:57:42;;;;;;;39.43;36.93;;;;;;;-1.18;100.00;100489.84;5031700;28;21019;-45
2022/11/21 01:00:11;;;;;;;39.47;37.17;;;;;;;-1.17;100.00;100488.91;5031955;28;20432;-45
2022/11/21 01:02:39;;;;;;;40.50;38.20;;;;;;;-1.16;100.00;100485.31;5031120;28;20495;-49
2022/11/21 01:05:07;;;;;;;39.80;37.50;;;;;;;-1.16;100.00;100498.38;5031712;28;20440;-45
2022/11/21 01:07:35;;;;;;;39.47;36.97;;;;;;;-1.15;100.00;100490.41;5031671;28;20510;-47
2022/11/21 01:10:03;;;;;;;37.90;35.73;;;;;;;-1.15;100.00;100484.34;5031916;28;20455;-45
2022/11/21 01:12:31;;;;;;;39.20;36.83;;;;;;;-1.14;100.00;100489.47;5031025;28;20468;-47
2022/11/21 01:15:00;;;;;;;41.90;39.20;;;;;;;-1.13;100.00;100477.19;5031726;28;20432;-45
2022/11/21 01:17:28;;;;;;;39.30;36.97;;;;;;;-1.12;100.00;100471.84;5031364;28;20472;-46
2022/11/21 01:19:55;;;;;;;39.80;37.40;;;;;;;-1.11;100.00;100464.84;5031791;28;20853;-46
2022/11/21 01:22:23;;;;;;;42.37;39.47;;;;;;;-1.10;100.00;100471.72;5030850;28;20471;-46
2022/11/21 01:24:51;;;;;;;39.57;37.27;;;;;;;-1.08;100.00;100461.13;5031753;28;20432;-45
2022/11/21 01:27:18;;;;;;;38.87;36.60;;;;;;;-1.09;100.00;100456.84;5031577;28;20452;-47
2022/11/21 01:29:46;;;;;;;39.17;36.90;;;;;;;-1.07;100.00;100457.53;5031549;28;20427;-49
2022/11/21 01:32:15;;;;;;;39.67;37.20;;;;;;;-1.05;100.00;100450.41;5030689;28;20471;-47
2022/11/21 01:34:42;;;;;;;39.93;37.63;;;;;;;-1.05;100.00;100447.78;5031683;28;20462;-47
2022/11/21 01:37:10;;;;;;;39.83;37.43;;;;;;;-1.04;100.00;100438.94;5031468;28;20825;-45
2022/11/21 01:39:38;;;;;;;39.33;37.23;;;;;;;-1.05;100.00;100440.78;5031449;28;20476;-48
2022/11/21 01:42:05;;;;;;;38.80;36.67;;;;;;;-1.04;100.00;100452.88;5030714;28;20460;-47
2022/11/21 01:44:48;;;;;;;38.93;36.73;;;;;;;-1.04;100.00;100446.81;5031295;28;20444;-47
2022/11/21 01:47:17;;;;;;;37.63;35.37;;;;;;;-1.05;100.00;100447.78;5031504;28;20842;-49
2022/11/21 01:49:46;;;;;;;39.20;37.00;;;;;;;-1.07;100.00;100447.91;5033603;28;20924;-45
2022/11/21 01:52:19;;;;;;;37.50;35.40;;;;;;;-1.09;100.00;100447.22;5027166;28;20465;-47
2022/11/21 01:54:51;;;;;;;37.80;35.70;;;;;;;-1.10;100.00;100450.78;5027455;28;20463;-45
2022/11/21 01:57:24;;;;;;;40.00;37.60;;;;;;;-1.14;100.00;100447.59;5035108;28;20456;-46
2022/11/21 01:59:59;;;;;;;39.60;37.30;;;;;;;-1.15;100.00;100447.72;5035154;28;20980;-47
2022/11/21 02:02:32;;;;;;;39.17;36.87;;;;;;;-1.17;100.00;100439.19;5034565;28;20817;-48
2022/11/21 02:05:01;;;;;;;37.70;35.40;;;;;;;-1.18;100.00;100434.91;5035191;28;20432;-44
2022/11/21 02:07:33;;;;;;;39.37;36.87;;;;;;;-1.21;100.00;100429.91;5034735;28;20833;-48
2022/11/21 02:10:02;;;;;;;38.87;36.50;;;;;;;-1.24;100.00;100428.41;5035295;28;20428;-48
2022/11/21 02:12:35;;;;;;;37.97;35.70;;;;;;;-1.24;100.00;100422.34;5034415;28;20472;-46
2022/11/21 02:15:03;;;;;;;39.73;37.37;;;;;;;-1.27;100.00;100419.97;5035034;28;20435;-46
2022/11/21 02:17:33;;;;;;;39.47;36.80;;;;;;;-1.27;100.00;100425.22;5034687;28;20464;-45
2022/11/21 02:20:03;;;;;;;38.50;36.43;;;;;;;-1.28;100.00;100421.75;5034578;28;21038;-47
2022/11/21 02:22:40;;;;;;;38.30;36.07;;;;;;;-1.28;100.00;100421.75;5034211;28;20510;-50
2022/11/21 02:25:12;;;;;;;39.20;36.73;;;;;;;-1.30;100.00;100421.06;5034874;28;20428;-47
2022/11/21 02:27:40;;;;;;;38.77;36.43;;;;;;;-1.31;100.00;100421.19;5034678;28;20513;-48
2022/11/21 02:30:10;;;;;;;39.83;37.40;;;;;;;-1.32;100.00;100417.75;5034631;28;20439;-47
2022/11/21 02:32:39;;;;;;;40.37;37.87;;;;;;;-1.32;100.00;100417.75;5033768;28;20452;-47
2022/11/21 02:35:07;;;;;;;40.30;38.00;;;;;;;-1.31;100.00;100419.41;5034726;28;20806;-48
2022/11/21 02:37:37;;;;;;;39.63;37.23;;;;;;;-1.30;100.00;100412.38;5034442;28;20451;-46
2022/11/21 02:40:09;;;;;;;40.70;38.00;;;;;;;-1.29;100.00;100411.44;5034464;28;20476;-48
2022/11/21 02:42:44;;;;;;;40.27;37.77;;;;;;;-1.30;100.00;100415.00;5033695;28;20467;-46
2022/11/21 02:45:24;;;;;;;39.37;36.90;;;;;;;-1.30;100.00;100418.44;5034642;28;20574;-47
2022/11/21 02:47:54;;;;;;;38.97;36.57;;;;;;;-1.29;100.00;100414.06;5034433;28;20460;-47
2022/11/21 02:50:31;;;;;;;40.17;37.57;;;;;;;-1.28;100.00;100415.69;5034263;28;20435;-50
2022/11/21 02:52:58;;;;;;;38.53;35.93;;;;;;;-1.30;100.00;100415.84;5025310;28;20460;-48
2022/11/21 02:55:27;;;;;;;38.67;36.13;;;;;;;-1.28;100.00;100410.47;5034001;28;20440;-48
2022/11/21 02:57:56;;;;;;;39.17;36.87;;;;;;;-1.30;100.00;100397.53;5034025;28;20455;-48
2022/11/21 03:00:31;;;;;;;37.90;35.63;;;;;;;-1.28;100.00;100400.81;5033628;28;20522;-48
2022/11/21 03:02:59;;;;;;;38.37;35.77;;;;;;;-1.29;100.00;100396.56;5033310;28;20841;-48
2022/11/21 03:05:27;;;;;;;39.30;36.90;;;;;;;-1.29;100.00;100395.75;5034028;28;20465;-48
2022/11/21 03:07:54;;;;;;;39.03;36.80;;;;;;;-1.27;100.00;100392.03;5033715;28;20459;-47
2022/11/21 03:10:22;;;;;;;38.00;35.80;;;;;;;-1.25;100.00;100397.94;5034064;28;20439;-47
2022/11/21 03:12:50;;;;;;;38.70;36.50;;;;;;;-1.24;100.00;100402.25;5033299;28;20471;-48
2022/11/21 03:15:19;;;;;;;37.90;35.80;;;;;;;-1.23;100.00;100401.28;5033879;28;20432;-46
2022/11/21 03:17:48;;;;;;;37.40;35.30;;;;;;;-1.21;100.00;100390.69;5033560;28;20468;-46
2022/11/21 03:20:16;;;;;;;38.43;36.20;;;;;;;-1.20;100.00;100390.56;5033579;28;20476;-47
2022/11/21 03:22:43;;;;;;;39.63;37.03;;;;;;;-1.20;100.00;100390.56;5032782;28;20460;-49
2022/11/21 03:25:11;;;;;;;38.93;36.67;;;;;;;-1.19;100.00;100391.38;5033756;28;20436;-45
2022/11/21 03:27:39;;;;;;;39.20;37.00;;;;;;;-1.18;100.00;100385.19;5033533;28;20503;-48
2022/11/21 03:30:08;;;;;;;39.20;37.10;;;;;;;-1.18;100.00;100386.03;5033574;28;20490;-47
2022/11/21 03:32:37;;;;;;;40.40;37.90;;;;;;;-1.17;100.00;100387.69;5032010;28;20471;-45
2022/11/21 03:35:05;;;;;;;40.57;38.03;;;;;;;-1.16;100.00;100394.56;5032017;28;20486;-48
2022/11/21 03:37:33;;;;;;;39.27;37.17;;;;;;;-1.16;100.00;100383.25;5032046;28;20471;-46
2022/11/21 03:40:00;;;;;;;39.83;37.30;;;;;;;-1.15;100.00;100390.16;5031900;28;21140;-50
2022/11/21 03:42:28;;;;;;;39.30;36.90;;;;;;;-1.16;100.00;100385.88;5031175;28;20460;-45
2022/11/21 03:44:56;;;;;;;39.97;37.13;;;;;;;-1.16;100.00;100383.25;5031789;28;20956;-47
2022/11/21 03:47:26;;;;;;;38.47;36.37;;;;;;;-1.16;100.00;100391.09;5032324;28;20489;-48
2022/11/21 03:49:55;;;;;;;39.10;36.77;;;;;;;-1.15;100.00;100382.31;5032843;28;20428;-46
2022/11/21 03:52:22;;;;;;;38.77;36.50;;;;;;;-1.20;100.00;100389.72;5024007;28;20461;-48
2022/11/21 03:54:50;;;;;;;38.40;36.30;;;;;;;-1.20;100.00;100395.78;5033108;28;20833;-47
2022/11/21 03:57:17;;;;;;;38.60;36.40;;;;;;;-1.21;100.00;100391.50;5033048;28;20462;-50
2022/11/21 03:59:45;;;;;;;37.83;35.83;;;;;;;-1.19;100.00;100394.81;5032826;28;20468;-47
2022/11/21 04:02:13;;;;;;;39.40;36.90;;;;;;;-1.18;100.00;100390.41;5031985;28;21381;-48
2022/11/21 04:04:40;;;;;;;39.63;37.23;;;;;;;-1.18;100.00;100386.03;5032939;28;20479;-46
2022/11/21 04:07:09;;;;;;;38.80;36.37;;;;;;;-1.16;100.00;100383.25;5032843;28;20506;-48
2022/11/21 04:09:37;;;;;;;38.50;36.40;;;;;;;-1.15;100.00;100387.53;5032863;28;20424;-46
2022/11/21 04:12:05;;;;;;;40.13;37.63;;;;;;;-1.15;100.00;100395.41;5031297;28;20464;-47
2022/11/21 04:14:34;;;;;;;39.90;37.63;;;;;;;-1.14;100.00;100399.69;5032471;28;20435;-47
2022/11/21 04:17:02;;;;;;;39.60;37.40;;;;;;;-1.13;100.00;100401.31;5032418;28;20460;-47
2022/11/21 04:19:30;;;;;;;39.63;36.93;;;;;;;-1.12;100.00;100395.13;5032604;28;20439;-48
2022/11/21 04:21:57;;;;;;;38.57;36.33;;;;;;;-1.10;100.00;100398.44;5031951;28;20861;-49
2022/11/21 04:24:26;;;;;;;39.30;37.00;;;;;;;-1.12;100.00;100397.75;5032462;28;20439;-47
2022/11/21 04:26:54;;;;;;;38.17;36.03;;;;;;;-1.09;100.00;100389.63;5032277;28;20467;-47
2022/11/21 04:29:22;;;;;;;39.13;36.97;;;;;;;-1.08;100.00;100388.69;5032327;28;20478;-47
2022/11/21 04:31:49;;;;;;;38.83;36.53;;;;;;;-1.07;100.00;100387.72;5068709;22;20524;-43
2022/11/21 04:34:17;;;;;;;37.70;35.60;;;;;;;-1.05;100.00;100383.19;5052305;28;20428;-43
2022/11/21 04:36:45;;;;;;;38.00;36.00;;;;;;;-1.03;100.00;100372.59;5052342;28;20804;-44
2022/11/21 04:39:12;;;;;;;36.93;34.93;;;;;;;-1.03;100.00;100378.66;5052319;28;20801;-44
2022/11/21 04:41:41;;;;;;;38.20;36.30;;;;;;;-1.00;100.00;100377.56;5051223;28;20482;-43
2022/11/21 04:44:09;;;;;;;39.73;37.50;;;;;;;-1.01;100.00;100373.28;5051544;28;20434;-44
2022/11/21 04:46:36;;;;;;;39.70;37.07;;;;;;;-0.97;100.00;100366.81;5050713;28;20435;-46
2022/11/21 04:49:04;;;;;;;37.27;35.30;;;;;;;-0.95;100.00;100368.34;5051940;28;20792;-45
2022/11/21 04:51:32;;;;;;;37.87;35.50;;;;;;;-0.93;100.00;100357.75;5051199;28;20454;-43
2022/11/21 04:53:59;;;;;;;36.33;34.33;;;;;;;-0.90;100.00;100358.31;5051887;28;20442;-44
2022/11/21 04:56:27;;;;;;;36.50;34.33;;;;;;;-0.87;100.00;100358.06;5051802;28;20438;-44
2022/11/21 04:58:56;;;;;;;37.00;34.70;;;;;;;-0.84;100.00;100356.97;5051961;28;20512;-45
2022/11/21 05:01:23;;;;;;;35.70;33.80;;;;;;;-0.82;100.00;100350.63;5050493;28;20471;-44
2022/11/21 05:03:52;;;;;;;36.33;34.53;;;;;;;-0.77;100.00;100355.44;5051231;28;20471;-45
2022/11/21 05:06:20;;;;;;;35.93;34.13;;;;;;;-0.74;100.00;100356.00;5051827;28;20916;-42
2022/11/21 05:08:47;;;;;;;38.10;35.90;;;;;;;-0.71;100.00;100355.75;5051661;28;20435;-43
2022/11/21 05:14:07;;;;;;;35.60;33.57;;;;;;;-0.72;100.00;100351.47;5051669;28;20435;-44
2022/11/21 05:16:35;;;;;;;36.40;34.50;;;;;;;-0.68;100.00;100347.63;5051639;28;21017;-44
2022/11/21 05:19:02;;;;;;;37.60;35.60;;;;;;;-0.66;100.00;100350.13;5051591;28;20506;-45
2022/11/21 05:21:30;;;;;;;38.23;35.97;;;;;;;-0.67;100.00;100346.66;5050714;28;20482;-43
2022/11/21 05:23:57;;;;;;;39.07;36.93;;;;;;;-0.67;100.00;100345.84;5051560;28;20439;-43
2022/11/21 05:26:25;;;;;;;39.27;37.00;;;;;;;-0.67;100.00;100351.06;5051774;28;20497;-44
2022/11/21 05:28:52;;;;;;;38.80;36.67;;;;;;;-0.71;100.00;100358.38;5051582;28;20484;-43
2022/11/21 05:31:21;;;;;;;37.80;35.70;;;;;;;-0.75;100.00;100348.31;5051118;28;20463;-44
2022/11/21 05:33:49;;;;;;;37.37;35.50;;;;;;;-0.74;100.00;100337.69;5050858;28;20467;-44
2022/11/21 05:36:17;;;;;;;39.70;37.37;;;;;;;-0.73;100.00;100335.91;5051463;28;20928;-44
2022/11/21 05:38:44;;;;;;;37.23;35.23;;;;;;;-0.74;100.00;100332.44;5051551;28;20431;-43
2022/11/21 05:41:12;;;;;;;38.43;36.40;;;;;;;-0.73;100.00;100336.72;5051260;28;20533;-44
2022/11/21 05:43:46;;;;;;;39.40;37.20;;;;;;;-0.74;100.00;100329.00;5050937;28;21019;-46
2022/11/21 05:46:15;;;;;;;39.00;37.00;;;;;;;-0.75;100.00;100336.06;5051269;28;20438;-42
2022/11/21 05:48:44;;;;;;;38.27;36.27;;;;;;;-0.76;100.00;100333.56;5051537;28;20790;-44
2022/11/21 05:51:12;;;;;;;39.60;37.10;;;;;;;-0.77;100.00;100331.88;5051101;28;20501;-43
2022/11/21 05:53:40;;;;;;;39.00;37.00;;;;;;;-0.76;100.00;100328.31;5050681;28;20486;-44
2022/11/21 05:56:09;;;;;;;37.00;35.10;;;;;;;-0.76;100.00;100323.06;5051507;28;20831;-44
2022/11/21 05:58:37;;;;;;;39.13;36.90;;;;;;;-0.74;100.00;100326.38;5051269;28;20427;-43
2022/11/21 06:01:06;;;;;;;40.27;37.73;;;;;;;-0.73;100.00;100322.81;5050804;28;20483;-48
2022/11/21 06:03:35;;;;;;;37.53;35.63;;;;;;;-0.73;100.00;100318.41;5050913;28;20494;-43
2022/11/21 06:06:06;;;;;;;38.13;36.00;;;;;;;-0.71;100.00;100311.22;5051470;28;20466;-44
2022/11/21 06:08:35;;;;;;;39.30;36.97;;;;;;;-0.71;100.00;100310.41;5051336;28;20980;-44
2022/11/21 06:11:04;;;;;;;37.63;35.60;;;;;;;-0.67;100.00;100311.81;5050958;28;20477;-43
2022/11/21 06:13:32;;;;;;;39.37;37.10;;;;;;;-0.65;100.00;100315.09;5049918;28;20529;-47
2022/11/21 06:16:02;;;;;;;38.13;36.13;;;;;;;-0.65;100.00;100309.84;5051119;28;20501;-43
2022/11/21 06:18:32;;;;;;;39.50;37.20;;;;;;;-0.65;100.00;100305.47;5051122;28;20439;-43
2022/11/21 06:21:06;;;;;;;38.30;36.00;;;;;;;-0.63;100.00;100294.88;5050240;28;20938;-44
2022/11/21 06:23:34;;;;;;;40.40;38.07;;;;;;;-0.60;100.00;100305.06;5050587;28;20469;-43
2022/11/21 06:26:04;;;;;;;38.20;35.93;;;;;;;-0.59;100.00;100294.44;5050929;28;20435;-43
2022/11/21 06:28:33;;;;;;;39.97;37.53;;;;;;;-0.59;100.00;100293.59;5050865;28;20434;-43
2022/11/21 06:31:04;;;;;;;38.83;36.50;;;;;;;-0.58;100.00;100300.50;5050098;28;20463;-43
2022/11/21 06:33:31;;;;;;;38.80;36.37;;;;;;;-0.57;100.00;100297.75;5050458;28;20462;-43
2022/11/21 06:36:01;;;;;;;38.10;36.00;;;;;;;-0.54;100.00;100294.03;5053259;28;20435;-44
2022/11/21 06:38:30;;;;;;;40.00;37.50;;;;;;;-0.51;100.00;100293.78;5054402;28;20895;-43
2022/11/21 06:40:58;;;;;;;40.30;37.90;;;;;;;-0.47;100.00;100287.28;5054110;28;20968;-43
2022/11/21 06:43:27;;;;;;;38.47;36.20;;;;;;;-0.46;100.00;100296.81;5053997;28;20462;-44
2022/11/21 06:45:55;;;;;;;38.10;35.90;;;;;;;-0.43;100.00;100303.56;5054038;28;20436;-44
2022/11/21 06:48:23;;;;;;;38.07;35.90;;;;;;;-0.42;100.00;100297.38;5054206;28;20936;-43
2022/11/21 06:50:50;;;;;;;39.90;37.47;;;;;;;-0.42;100.00;100294.75;5053721;28;20451;-43
2022/11/21 06:53:18;;;;;;;38.53;36.17;;;;;;;-0.40;100.00;100285.78;5053423;28;20810;-46
2022/11/21 06:55:47;;;;;;;37.53;35.23;;;;;;;-0.41;100.00;100293.75;5034151;28;20961;-44
2022/11/21 06:58:14;;;;;;;38.80;36.20;;;;;;;-0.40;100.00;100287.56;5034291;28;20440;-45
2022/11/21 07:00:43;;;;;;;38.50;36.30;;;;;;;-0.40;100.00;100288.41;5033939;28;20535;-44
2022/11/21 07:03:10;;;;;;;38.50;35.97;;;;;;;-0.39;100.00;100281.38;5033414;28;20897;-44
2022/11/21 07:05:38;;;;;;;39.00;36.60;;;;;;;-0.37;100.00;100287.28;5033949;28;20494;-45
2022/11/21 07:08:05;;;;;;;38.23;36.03;;;;;;;-0.36;100.00;100281.09;5033785;28;20968;-44
2022/11/21 07:10:40;;;;;;;39.33;37.10;;;;;;;-0.36;100.00;100283.72;5033803;28;20510;-44
2022/11/21 07:13:29;;;;;;;40.60;38.20;;;;;;;-0.35;100.00;100285.34;5033336;28;20452;-44
2022/11/21 07:16:02;;;;;;;39.67;37.33;;;;;;;-0.32;100.00;100274.59;5033573;28;20494;-44
2022/11/21 07:18:30;;;;;;;39.37;36.97;;;;;;;-0.30;100.00;100278.72;5033923;28;20440;-43
2022/11/21 07:20:58;;;;;;;40.33;37.70;;;;;;;-0.28;100.00;100278.59;5033436;28;20448;-47
2022/11/21 07:23:26;;;;;;;39.33;36.87;;;;;;;-0.28;100.00;100279.44;5033220;28;20475;-45
2022/11/21 07:25:54;;;;;;;39.13;37.03;;;;;;;-0.24;100.00;100270.31;5033733;28;20428;-44
2022/11/21 07:28:22;;;;;;;41.20;38.73;;;;;;;-0.19;100.00;100269.91;5033443;28;20440;-46
2022/11/21 07:30:51;;;;;;;39.77;37.47;;;;;;;-0.18;100.00;100280.25;5033128;28;20475;-45
2022/11/21 07:33:18;;;;;;;40.80;38.40;;;;;;;-0.15;100.00;100273.91;5033173;28;20456;-46
2022/11/21 07:35:46;;;;;;;41.57;39.07;;;;;;;-0.11;100.00;100276.09;5033631;28;20424;-45
2022/11/21 07:38:13;;;;;;;40.40;38.10;;;;;;;-0.09;100.00;100268.91;5033470;28;20440;-45
2022/11/21 07:40:41;;;;;;;40.50;38.00;;;;;;;-0.05;100.00;100267.69;5033215;28;20452;-46
2022/11/21 07:43:10;;;;;;;39.67;37.43;;;;;;;-0.02;100.00;100259.53;5032535;28;20472;-44
2022/11/21 07:45:38;;;;;;;39.17;36.90;;;;;;;0.03;100.00;100261.72;5033303;28;20858;-44
2022/11/21 07:48:07;;;;;;;40.03;37.30;;;;;;;0.07;100.00;100270.13;5032272;28;20446;-45
2022/11/21 07:50:35;;;;;;;41.00;38.60;;;;;;;0.12;100.00;100267.94;5033205;28;20439;-45
2022/11/21 07:53:05;;;;;;;41.60;38.90;;;;;;;0.17;100.00;100263.94;5048220;28;20838;-45
2022/11/21 07:55:33;;;;;;;40.40;37.80;;;;;;;0.19;100.00;100261.97;5052962;28;20438;-47
2022/11/21 07:58:08;;;;;;;40.40;38.07;;;;;;;0.23;100.00;100268.59;5053173;28;20434;-45
2022/11/21 08:00:38;;;;;;;41.57;39.03;;;;;;;0.28;100.00;100266.38;5052929;28;20455;-45
2022/11/21 08:03:07;;;;;;;40.87;38.33;;;;;;;0.30;100.00;100267.03;5052115;28;20977;-46
2022/11/21 08:05:36;;;;;;;42.00;39.53;;;;;;;0.35;100.00;100274.50;5052899;28;20431;-45
2022/11/21 08:08:04;;;;;;;42.10;39.40;;;;;;;0.40;100.00;100273.09;5052589;28;20431;-45
2022/11/21 08:10:32;;;;;;;42.77;40.23;;;;;;;0.42;100.00;100260.66;5052629;28;21002;-45
2022/11/21 08:13:00;;;;;;;43.03;40.43;;;;;;;0.47;100.00;100266.31;5052120;28;20489;-46
2022/11/21 08:15:27;;;;;;;43.77;41.03;;;;;;;0.51;100.00;100257.19;5052788;28;20436;-49
2022/11/21 08:17:55;;;;;;;42.63;40.13;;;;;;;0.54;100.00;100264.75;5052584;28;20435;-44
2022/11/21 08:20:24;;;;;;;44.00;41.20;;;;;;;0.57;100.00;100261.84;5052418;28;20538;-45
2022/11/21 08:22:52;;;;;;;42.63;39.90;;;;;;;0.63;100.00;100257.00;5051879;28;20483;-45
2022/11/21 08:25:19;;;;;;;42.10;39.50;;;;;;;0.70;100.00;100252.81;5052454;28;20439;-44
2022/11/21 08:27:47;;;;;;;43.03;40.13;;;;;;;0.72;100.00;100262.19;5052391;28;20442;-44
2022/11/21 08:30:14;;;;;;;45.43;42.53;;;;;;;0.75;100.00;100250.56;5052371;28;20435;-44
2022/11/21 08:32:42;;;;;;;43.30;40.60;;;;;;;0.78;100.00;100245.88;5051491;28;20467;-43
2022/11/21 08:35:10;;;;;;;44.00;41.27;;;;;;;0.82;100.00;100252.50;5052224;28;21121;-44
2022/11/21 08:37:39;;;;;;;44.30;40.77;;;;;;;0.86;100.00;100251.22;5052271;28;20990;-45
2022/11/21 08:40:08;;;;;;;45.37;42.37;;;;;;;0.90;100.00;100252.56;5052161;28;20928;-44
2022/11/21 08:42:36;;;;;;;42.83;40.13;;;;;;;0.91;100.00;100251.63;5051384;28;20490;-46
2022/11/21 08:45:05;;;;;;;44.90;42.00;;;;;;;0.94;100.00;100250.50;5052669;28;20442;-44
2022/11/21 08:47:32;;;;;;;44.57;41.87;;;;;;;0.99;100.00;100249.06;5052044;28;20438;-44
2022/11/21 08:50:00;;;;;;;46.60;43.40;;;;;;;1.04;100.00;100246.00;5052244;28;20434;-44
2022/11/21 08:52:35;;;;;;;43.73;41.03;;;;;;;1.08;100.00;100249.97;5051240;28;20867;-44
2022/11/21 08:55:05;;;;;;;48.57;45.40;;;;;;;1.13;100.00;100250.38;5052094;28;20550;-45
2022/11/21 08:57:37;;;;;;;46.47;43.37;;;;;;;1.16;100.00;100252.72;5051536;28;20436;-45
2022/11/21 09:00:06;;;;;;;47.37;44.20;;;;;;;1.19;100.00;100249.78;5051808;28;20427;-44
2022/11/21 09:02:34;;;;;;;47.40;44.30;;;;;;;1.21;100.00;100258.34;5051013;28;21030;-45
2022/11/21 09:05:02;;;;;;;48.10;44.80;;;;;;;1.25;100.00;100254.44;5051778;28;20951;-47
2022/11/21 09:07:30;;;;;;;47.03;43.67;;;;;;;1.31;100.00;100255.66;5051856;28;20439;-44
2022/11/21 09:09:57;;;;;;;45.40;42.50;;;;;;;1.35;100.00;100257.81;5051835;28;20459;-45
2022/11/21 09:12:26;;;;;;;46.40;42.73;;;;;;;1.36;100.00;100256.84;5050955;28;20459;-46
2022/11/21 09:20:24;;;;;;;49.40;45.90;;;;;;;1.49;100.00;100259.91;5051612;28;20428;-49
2022/11/21 09:22:52;;;;;;;49.23;45.93;;;;;;;1.52;100.00;100262.25;5050857;28;20510;-44
2022/11/21 09:25:20;;;;;;;46.50;43.53;;;;;;;1.54;100.00;100256.84;5051856;28;20856;-45
2022/11/21 09:27:49;;;;;;;47.90;44.50;;;;;;;1.54;100.00;100265.56;5051794;28;20431;-43
2022/11/21 09:30:17;;;;;;;54.00;50.10;;;;;;;1.53;100.00;100270.97;5051631;28;20435;-45
2022/11/21 09:32:44;;;;;;;48.00;44.67;;;;;;;1.49;100.00;100267.00;5050946;28;20802;-46
2022/11/21 09:35:12;;;;;;;49.60;46.13;;;;;;;1.53;100.00;100270.97;5051529;28;20481;-44
2022/11/21 09:37:39;;;;;;;47.77;44.33;;;;;;;1.48;100.00;100267.97;5051426;28;20434;-44
2022/11/21 09:40:13;;;;;;;46.63;43.53;;;;;;;1.51;100.00;100270.28;5051773;28;20485;-43
2022/11/21 09:43:06;;;;;;;49.73;45.77;;;;;;;1.52;100.00;100271.97;5050822;28;20478;-44
2022/11/21 09:45:37;;;;;;;45.23;42.03;;;;;;;1.54;100.00;100270.00;5051440;28;20423;-44
2022/11/21 09:48:11;;;;;;;50.30;46.67;;;;;;;1.59;100.00;100268.56;5051398;28;20785;-45
2022/11/21 09:50:42;;;;;;;49.10;45.90;;;;;;;1.68;100.00;100272.09;5051526;28;20447;-44
2022/11/21 09:53:13;;;;;;;52.57;48.97;;;;;;;1.75;100.00;100267.06;5050801;28;20455;-46
2022/11/21 09:55:44;;;;;;;51.60;47.63;;;;;;;1.85;100.00;100265.97;5051312;28;20423;-44
2022/11/21 09:58:23;;;;;;;49.60;46.03;;;;;;;1.90;100.00;100258.47;5051247;28;20435;-44
2022/11/21 10:00:51;;;;;;;52.30;48.50;;;;;;;1.96;100.00;100254.41;5051298;28;20435;-45
2022/11/21 10:03:22;;;;;;;49.47;45.97;;;;;;;2.04;100.00;100257.09;5050827;28;20479;-44
2022/11/21 10:05:54;;;;;;;52.80;49.20;;;;;;;2.10;100.00;100256.47;5051151;28;20428;-44
2022/11/21 10:08:30;;;;;;;50.37;46.97;;;;;;;2.18;100.00;100256.56;5051296;28;20439;-44
2022/11/21 10:11:05;;;;;;;51.77;48.07;;;;;;;2.30;100.00;100257.91;5053340;28;20454;-44
2022/11/21 10:13:57;;;;;;;52.30;48.57;;;;;;;2.43;100.00;100255.69;5054598;28;20820;-44
2022/11/21 10:16:34;;;;;;;53.73;49.87;;;;;;;2.58;100.00;100256.78;5055141;28;20427;-44
2022/11/21 10:19:43;;;;;;;52.20;48.47;;;;;;;2.76;100.00;100259.31;5054805;28;20778;-44
2022/11/21 10:22:34;;;;;;;49.03;45.40;;;;;;;2.89;100.00;100256.25;5054287;28;20458;-47
2022/11/21 10:25:10;;;;;;;50.97;47.43;;;;;;;2.92;100.00;100255.94;5054870;28;20432;-44
2022/11/21 10:27:46;;;;;;;50.70;47.30;;;;;;;2.89;100.00;100253.63;5054698;28;20568;-45
2022/11/21 10:30:19;;;;;;;51.13;47.53;;;;;;;2.89;100.00;100241.28;5054811;28;20476;-44
2022/11/21 10:32:50;;;;;;;51.00;47.40;;;;;;;2.88;100.00;100241.41;5054444;22;20460;-48
2022/11/21 10:35:22;;;;;;;51.07;47.47;;;;;;;2.91;100.00;100246.38;5051181;28;20427;-44
2022/11/21 10:37:52;;;;;;;51.07;47.23;;;;;;;2.87;100.00;100245.06;5054816;28;20435;-46
2022/11/21 10:40:34;;;;;;;47.63;44.50;;;;;;;2.86;100.00;100243.41;5054706;28;20428;-46
2022/11/21 10:45:50;;;;;;;46.83;43.53;;;;;;;2.85;100.00;100244.38;5054389;28;20983;-46
2022/11/21 10:48:17;;;;;;;45.13;42.13;;;;;;;2.87;100.00;100234.53;5054515;28;20481;-46
2022/11/21 10:51:01;;;;;;;43.87;41.10;;;;;;;2.89;100.00;100229.91;5054492;28;20432;-45
2022/11/21 10:56:19;;;;;;;44.80;41.90;;;;;;;2.90;100.00;100232.38;5034745;28;20802;-48
2022/11/21 10:58:49;;;;;;;44.03;41.23;;;;;;;2.90;100.00;100228.94;5034275;28;20432;-47
2022/11/21 11:01:23;;;;;;;45.00;42.07;;;;;;;2.91;100.00;100222.66;5034483;28;20510;-45
2022/11/21 11:04:16;;;;;;;42.83;39.93;;;;;;;2.94;100.00;100223.19;5033699;28;20504;-44
2022/11/21 11:07:20;;;;;;;43.47;40.60;;;;;;;2.98;100.00;100219.25;5034585;28;20467;-45
2022/11/21 11:09:48;;;;;;;44.20;41.30;;;;;;;3.00;100.00;100212.00;5034438;28;20442;-44
2022/11/21 11:15:24;;;;;;;42.40;39.90;;;;;;;2.92;100.00;100216.44;5034385;28;20428;-45
2022/11/21 11:17:56;;;;;;;41.37;38.87;;;;;;;2.94;100.00;100210.00;5034761;28;20436;-43
2022/11/21 11:20:34;;;;;;;42.53;39.60;;;;;;;2.90;100.00;100205.25;5033902;28;20836;-46
2022/11/21 11:23:16;;;;;;;40.10;37.70;;;;;;;2.90;100.00;100205.25;5033625;28;20488;-45
2022/11/21 11:25:49;;;;;;;38.87;36.60;;;;;;;2.92;100.00;100200.63;5033972;28;20844;-43
2022/11/21 11:28:18;;;;;;;39.67;37.33;;;;;;;2.94;100.00;100198.66;5034086;28;20436;-45
2022/11/21 11:30:47;;;;;;;39.53;37.20;;;;;;;3.04;100.00;100194.06;5033651;28;20443;-42
2022/11/21 11:33:36;;;;;;;40.17;37.90;;;;;;;3.07;100.00;100194.56;5033607;28;20460;-45